sensor_id;sensor_type;location;lat;lon;timestamp;temperature;humidity
17887;DHT22;9069;52.044;7.472;2024-02-04T00:02:16;13.20;99.90
17887;DHT22;9069;52.044;7.472;2024-02-04T00:04:44;13.20;99.90
17887;DHT22;9069;52.044;7.472;2024-02-04T00:07:11;13.20;99.90
17887;DHT22;9069;52.044;7.472;2024-02-04T00:09:38;13.20;99.90
17887;DHT22;9069;52.044;7.472;2024-02-04T00:12:05;13.20;99.90
17887;DHT22;9069;52.044;7.472;2024-02-04T00:14:32;13.30;99.90
17887;DHT22;9069;52.044;7.472;2024-02-04T00:16:59;13.30;99.90
17887;DHT22;9069;52.044;7.472;2024-02-04T00:19:26;13.30;99.90
17887;DHT22;9069;52.044;7.472;2024-02-04T00:21:53;13.30;99.90
17887;DHT22;9069;52.044;7.472;2024-02-04T00:24:21;13.30;99.90
17887;DHT22;9069;52.044;7.472;2024-02-04T00:26:48;13.30;99.90
17887;DHT22;9069;52.044;7.472;2024-02-04T00:29:15;13.30;99.90
17887;DHT22;9069;52.044;7.472;2024-02-04T00:31:41;13.40;99.90
17887;DHT22;9069;52.044;7.472;2024-02-04T00:34:08;13.30;99.90
17887;DHT22;9069;52.044;7.472;2024-02-04T00:36:35;13.40;99.90
17887;DHT22;9069;52.044;7.472;2024-02-04T00:39:02;13.40;99.90
17887;DHT22;9069;52.044;7.472;2024-02-04T00:41:29;13.40;99.90
17887;DHT22;9069;52.044;7.472;2024-02-04T00:43:56;13.40;99.90
17887;DHT22;9069;52.044;7.472;2024-02-04T00:46:23;13.40;99.90
17887;DHT22;9069;52.044;7.472;2024-02-04T00:48:50;13.40;99.90
17887;DHT22;9069;52.044;7.472;2024-02-04T00:51:17;13.40;99.90
17887;DHT22;9069;52.044;7.472;2024-02-04T00:53:44;13.40;99.90
17887;DHT22;9069;52.044;7.472;2024-02-04T00:56:11;13.40;99.90
17887;DHT22;9069;52.044;7.472;2024-02-04T00:58:39;13.50;99.90
17887;DHT22;9069;52.044;7.472;2024-02-04T01:01:05;13.50;99.90
17887;DHT22;9069;52.044;7.472;2024-02-04T01:03:32;13.50;99.90
17887;DHT22;9069;52.044;7.472;2024-02-04T01:06:00;13.50;99.90
17887;DHT22;9069;52.044;7.472;2024-02-04T01:08:31;13.50;99.90
17887;DHT22;9069;52.044;7.472;2024-02-04T01:11:00;13.50;99.90
17887;DHT22;9069;52.044;7.472;2024-02-04T01:13:30;13.50;99.90
17887;DHT22;9069;52.044;7.472;2024-02-04T01:15:57;13.50;99.90
17887;DHT22;9069;52.044;7.472;2024-02-04T01:18:24;13.50;99.90
17887;DHT22;9069;52.044;7.472;2024-02-04T01:20:51;13.50;99.90
17887;DHT22;9069;52.044;7.472;2024-02-04T01:23:18;13.50;99.90
17887;DHT22;9069;52.044;7.472;2024-02-04T01:25:45;13.50;99.90
17887;DHT22;9069;52.044;7.472;2024-02-04T01:28:12;13.50;99.90
17887;DHT22;9069;52.044;7.472;2024-02-04T01:30:38;13.40;99.90
17887;DHT22;9069;52.044;7.472;2024-02-04T01:33:05;13.50;99.90
17887;DHT22;9069;52.044;7.472;2024-02-04T01:35:33;13.50;99.90
17887;DHT22;9069;52.044;7.472;2024-02-04T01:38:00;13.50;99.90
17887;DHT22;9069;52.044;7.472;2024-02-04T01:40:29;13.50;99.90
17887;DHT22;9069;52.044;7.472;2024-02-04T01:42:56;13.50;99.90
17887;DHT22;9069;52.044;7.472;2024-02-04T01:45:23;13.50;99.90
17887;DHT22;9069;52.044;7.472;2024-02-04T01:47:51;13.50;99.90
17887;DHT22;9069;52.044;7.472;2024-02-04T01:50:19;13.50;99.90
17887;DHT22;9069;52.044;7.472;2024-02-04T01:52:47;13.50;99.90
17887;DHT22;9069;52.044;7.472;2024-02-04T01:55:15;13.50;99.90
17887;DHT22;9069;52.044;7.472;2024-02-04T01:57:42;13.50;99.90
17887;DHT22;9069;52.044;7.472;2024-02-04T02:00:09;13.50;99.90
17887;DHT22;9069;52.044;7.472;2024-02-04T02:02:40;13.50;99.90
17887;DHT22;9069;52.044;7.472;2024-02-04T02:05:08;13.50;99.90
17887;DHT22;9069;52.044;7.472;2024-02-04T02:07:36;13.50;99.90
17887;DHT22;9069;52.044;7.472;2024-02-04T02:10:03;13.50;99.90
17887;DHT22;9069;52.044;7.472;2024-02-04T02:12:52;13.50;99.90
17887;DHT22;9069;52.044;7.472;2024-02-04T02:15:22;13.50;99.90
17887;DHT22;9069;52.044;7.472;2024-02-04T02:18:17;13.50;99.90
17887;DHT22;9069;52.044;7.472;2024-02-04T02:21:18;13.50;99.90
17887;DHT22;9069;52.044;7.472;2024-02-04T02:24:12;13.50;99.90
17887;DHT22;9069;52.044;7.472;2024-02-04T02:26:41;13.50;99.90
17887;DHT22;9069;52.044;7.472;2024-02-04T02:29:08;13.50;99.90
17887;DHT22;9069;52.044;7.472;2024-02-04T02:31:37;13.40;99.90
17887;DHT22;9069;52.044;7.472;2024-02-04T02:34:14;13.40;99.90
17887;DHT22;9069;52.044;7.472;2024-02-04T02:37:27;13.50;99.90
17887;DHT22;9069;52.044;7.472;2024-02-04T02:42:23;13.40;99.90
17887;DHT22;9069;52.044;7.472;2024-02-04T02:44:53;13.40;99.90
17887;DHT22;9069;52.044;7.472;2024-02-04T02:47:22;13.40;99.90
17887;DHT22;9069;52.044;7.472;2024-02-04T02:49:54;13.40;99.90
17887;DHT22;9069;52.044;7.472;2024-02-04T02:52:22;13.30;99.90
17887;DHT22;9069;52.044;7.472;2024-02-04T02:54:49;13.40;99.90
17887;DHT22;9069;52.044;7.472;2024-02-04T02:57:16;13.30;99.90
17887;DHT22;9069;52.044;7.472;2024-02-04T02:59:43;13.30;99.90
17887;DHT22;9069;52.044;7.472;2024-02-04T03:02:10;13.30;99.90
17887;DHT22;9069;52.044;7.472;2024-02-04T03:04:38;13.30;99.90
17887;DHT22;9069;52.044;7.472;2024-02-04T03:07:05;13.20;99.90
17887;DHT22;9069;52.044;7.472;2024-02-04T03:09:34;13.20;99.90
17887;DHT22;9069;52.044;7.472;2024-02-04T03:12:01;13.20;99.90
17887;DHT22;9069;52.044;7.472;2024-02-04T03:14:30;13.20;99.90
17887;DHT22;9069;52.044;7.472;2024-02-04T03:16:58;13.10;99.90
17887;DHT22;9069;52.044;7.472;2024-02-04T03:19:24;13.10;99.90
17887;DHT22;9069;52.044;7.472;2024-02-04T03:21:51;13.10;99.90
17887;DHT22;9069;52.044;7.472;2024-02-04T03:24:18;13.10;99.90
17887;DHT22;9069;52.044;7.472;2024-02-04T03:26:45;13.20;99.90
17887;DHT22;9069;52.044;7.472;2024-02-04T03:29:12;13.00;99.90
17887;DHT22;9069;52.044;7.472;2024-02-04T03:31:39;13.00;99.90
17887;DHT22;9069;52.044;7.472;2024-02-04T03:34:05;13.00;99.90
17887;DHT22;9069;52.044;7.472;2024-02-04T03:36:32;13.00;99.90
17887;DHT22;9069;52.044;7.472;2024-02-04T03:38:59;13.00;99.90
17887;DHT22;9069;52.044;7.472;2024-02-04T03:41:26;13.00;99.90
17887;DHT22;9069;52.044;7.472;2024-02-04T03:43:54;13.00;99.90
17887;DHT22;9069;52.044;7.472;2024-02-04T03:46:21;13.00;99.90
17887;DHT22;9069;52.044;7.472;2024-02-04T03:48:49;13.00;99.90
17887;DHT22;9069;52.044;7.472;2024-02-04T03:51:20;13.00;99.90
17887;DHT22;9069;52.044;7.472;2024-02-04T03:53:48;13.00;99.90
17887;DHT22;9069;52.044;7.472;2024-02-04T03:56:16;13.00;99.90
17887;DHT22;9069;52.044;7.472;2024-02-04T03:58:43;13.00;99.90
17887;DHT22;9069;52.044;7.472;2024-02-04T04:01:10;13.00;99.90
17887;DHT22;9069;52.044;7.472;2024-02-04T04:03:42;13.00;99.90
17887;DHT22;9069;52.044;7.472;2024-02-04T04:06:10;13.00;99.90
17887;DHT22;9069;52.044;7.472;2024-02-04T04:08:38;13.00;99.90
17887;DHT22;9069;52.044;7.472;2024-02-04T04:11:07;13.00;99.90
17887;DHT22;9069;52.044;7.472;2024-02-04T04:13:34;13.00;99.90
17887;DHT22;9069;52.044;7.472;2024-02-04T04:16:02;13.00;99.90
17887;DHT22;9069;52.044;7.472;2024-02-04T04:18:31;13.00;99.90
17887;DHT22;9069;52.044;7.472;2024-02-04T04:20:58;13.00;99.90
17887;DHT22;9069;52.044;7.472;2024-02-04T04:23:24;12.90;99.90
17887;DHT22;9069;52.044;7.472;2024-02-04T04:25:51;13.00;99.90
17887;DHT22;9069;52.044;7.472;2024-02-04T04:28:18;13.00;99.90
17887;DHT22;9069;52.044;7.472;2024-02-04T04:30:45;13.00;99.90
17887;DHT22;9069;52.044;7.472;2024-02-04T04:33:12;13.00;99.90
17887;DHT22;9069;52.044;7.472;2024-02-04T04:35:39;13.00;99.90
17887;DHT22;9069;52.044;7.472;2024-02-04T04:38:06;13.00;99.90
17887;DHT22;9069;52.044;7.472;2024-02-04T04:40:33;13.00;99.90
17887;DHT22;9069;52.044;7.472;2024-02-04T04:42:59;13.00;99.90
17887;DHT22;9069;52.044;7.472;2024-02-04T04:45:27;13.10;99.90
17887;DHT22;9069;52.044;7.472;2024-02-04T04:47:54;12.90;99.90
17887;DHT22;9069;52.044;7.472;2024-02-04T04:50:22;12.90;99.90
17887;DHT22;9069;52.044;7.472;2024-02-04T04:52:49;12.90;99.90
17887;DHT22;9069;52.044;7.472;2024-02-04T04:55:16;12.90;99.90
17887;DHT22;9069;52.044;7.472;2024-02-04T04:57:43;12.90;99.90
17887;DHT22;9069;52.044;7.472;2024-02-04T05:00:10;12.90;99.90
17887;DHT22;9069;52.044;7.472;2024-02-04T05:02:37;13.00;99.90
17887;DHT22;9069;52.044;7.472;2024-02-04T05:05:04;13.00;99.90
17887;DHT22;9069;52.044;7.472;2024-02-04T05:07:31;12.90;99.90
17887;DHT22;9069;52.044;7.472;2024-02-04T05:09:58;12.90;99.90
17887;DHT22;9069;52.044;7.472;2024-02-04T05:12:25;12.90;99.90
17887;DHT22;9069;52.044;7.472;2024-02-04T05:14:52;12.90;99.90
17887;DHT22;9069;52.044;7.472;2024-02-04T05:17:19;12.90;99.90
17887;DHT22;9069;52.044;7.472;2024-02-04T05:19:45;12.90;99.90
17887;DHT22;9069;52.044;7.472;2024-02-04T05:22:12;12.90;99.90
17887;DHT22;9069;52.044;7.472;2024-02-04T05:24:41;12.90;99.90
17887;DHT22;9069;52.044;7.472;2024-02-04T05:27:08;12.90;99.90
17887;DHT22;9069;52.044;7.472;2024-02-04T05:29:34;12.90;99.90
17887;DHT22;9069;52.044;7.472;2024-02-04T05:32:01;12.90;99.90
17887;DHT22;9069;52.044;7.472;2024-02-04T05:34:28;12.90;99.90
17887;DHT22;9069;52.044;7.472;2024-02-04T05:36:57;12.90;99.90
17887;DHT22;9069;52.044;7.472;2024-02-04T05:39:24;12.90;99.90
17887;DHT22;9069;52.044;7.472;2024-02-04T05:41:52;12.90;99.90
17887;DHT22;9069;52.044;7.472;2024-02-04T05:44:19;12.80;99.90
17887;DHT22;9069;52.044;7.472;2024-02-04T05:46:46;12.90;99.90
17887;DHT22;9069;52.044;7.472;2024-02-04T05:49:13;12.90;99.90
17887;DHT22;9069;52.044;7.472;2024-02-04T05:51:40;12.90;99.90
17887;DHT22;9069;52.044;7.472;2024-02-04T05:54:08;12.90;99.90
17887;DHT22;9069;52.044;7.472;2024-02-04T05:56:35;12.90;99.90
17887;DHT22;9069;52.044;7.472;2024-02-04T05:59:02;12.90;99.90
17887;DHT22;9069;52.044;7.472;2024-02-04T06:01:28;12.90;99.90
17887;DHT22;9069;52.044;7.472;2024-02-04T06:03:55;12.90;99.90
17887;DHT22;9069;52.044;7.472;2024-02-04T06:06:22;12.90;99.90
17887;DHT22;9069;52.044;7.472;2024-02-04T06:08:49;12.90;99.90
17887;DHT22;9069;52.044;7.472;2024-02-04T06:11:16;12.90;99.90
17887;DHT22;9069;52.044;7.472;2024-02-04T06:13:44;12.90;99.90
17887;DHT22;9069;52.044;7.472;2024-02-04T06:16:11;12.90;99.90
17887;DHT22;9069;52.044;7.472;2024-02-04T06:18:39;12.90;99.90
17887;DHT22;9069;52.044;7.472;2024-02-04T06:21:07;13.00;99.90
17887;DHT22;9069;52.044;7.472;2024-02-04T06:23:34;13.00;99.90
17887;DHT22;9069;52.044;7.472;2024-02-04T06:26:06;13.00;99.90
17887;DHT22;9069;52.044;7.472;2024-02-04T06:28:32;12.90;99.90
17887;DHT22;9069;52.044;7.472;2024-02-04T06:31:00;14.80;99.90
17887;DHT22;9069;52.044;7.472;2024-02-04T06:33:29;13.00;99.90
17887;DHT22;9069;52.044;7.472;2024-02-04T06:35:56;13.00;99.90
17887;DHT22;9069;52.044;7.472;2024-02-04T06:38:23;12.90;99.90
17887;DHT22;9069;52.044;7.472;2024-02-04T06:40:50;12.90;99.90
17887;DHT22;9069;52.044;7.472;2024-02-04T06:43:17;12.90;99.90
17887;DHT22;9069;52.044;7.472;2024-02-04T06:45:44;12.90;99.90
17887;DHT22;9069;52.044;7.472;2024-02-04T06:48:12;12.90;99.90
17887;DHT22;9069;52.044;7.472;2024-02-04T06:50:39;12.90;99.90
17887;DHT22;9069;52.044;7.472;2024-02-04T06:53:06;12.90;99.90
17887;DHT22;9069;52.044;7.472;2024-02-04T06:55:33;12.90;99.90
17887;DHT22;9069;52.044;7.472;2024-02-04T06:57:59;12.90;99.90
17887;DHT22;9069;52.044;7.472;2024-02-04T07:00:27;12.80;99.90
17887;DHT22;9069;52.044;7.472;2024-02-04T07:02:54;12.80;99.90
17887;DHT22;9069;52.044;7.472;2024-02-04T07:05:21;12.80;99.90
17887;DHT22;9069;52.044;7.472;2024-02-04T07:07:49;12.80;99.90
17887;DHT22;9069;52.044;7.472;2024-02-04T07:10:17;12.70;99.90
17887;DHT22;9069;52.044;7.472;2024-02-04T07:12:44;12.80;99.90
17887;DHT22;9069;52.044;7.472;2024-02-04T07:15:11;12.80;99.90
17887;DHT22;9069;52.044;7.472;2024-02-04T07:17:38;12.70;99.90
17887;DHT22;9069;52.044;7.472;2024-02-04T07:20:05;12.70;99.90
17887;DHT22;9069;52.044;7.472;2024-02-04T07:22:33;12.70;99.90
17887;DHT22;9069;52.044;7.472;2024-02-04T07:25:04;12.70;99.90
17887;DHT22;9069;52.044;7.472;2024-02-04T07:27:31;12.70;99.90
17887;DHT22;9069;52.044;7.472;2024-02-04T07:29:58;12.70;99.90
17887;DHT22;9069;52.044;7.472;2024-02-04T07:32:24;12.70;99.90
17887;DHT22;9069;52.044;7.472;2024-02-04T07:34:51;12.60;99.90
17887;DHT22;9069;52.044;7.472;2024-02-04T07:37:18;12.60;99.90
17887;DHT22;9069;52.044;7.472;2024-02-04T07:39:46;12.60;99.90
17887;DHT22;9069;52.044;7.472;2024-02-04T07:42:13;12.60;99.90
17887;DHT22;9069;52.044;7.472;2024-02-04T07:44:40;12.50;99.90
17887;DHT22;9069;52.044;7.472;2024-02-04T07:47:06;12.50;99.90
17887;DHT22;9069;52.044;7.472;2024-02-04T07:49:33;12.50;99.90
17887;DHT22;9069;52.044;7.472;2024-02-04T07:52:00;12.50;99.90
17887;DHT22;9069;52.044;7.472;2024-02-04T07:54:28;12.50;99.90
17887;DHT22;9069;52.044;7.472;2024-02-04T07:56:55;12.50;99.90
17887;DHT22;9069;52.044;7.472;2024-02-04T07:59:22;12.40;99.90
17887;DHT22;9069;52.044;7.472;2024-02-04T08:01:49;12.40;99.90
17887;DHT22;9069;52.044;7.472;2024-02-04T08:04:16;12.40;99.90
17887;DHT22;9069;52.044;7.472;2024-02-04T08:06:43;12.40;99.70
17887;DHT22;9069;52.044;7.472;2024-02-04T08:09:09;12.40;99.90
17887;DHT22;9069;52.044;7.472;2024-02-04T08:11:36;12.40;99.90
17887;DHT22;9069;52.044;7.472;2024-02-04T08:14:03;12.40;99.90
17887;DHT22;9069;52.044;7.472;2024-02-04T08:16:30;12.40;99.90
17887;DHT22;9069;52.044;7.472;2024-02-04T08:18:57;12.40;99.90
17887;DHT22;9069;52.044;7.472;2024-02-04T08:21:24;12.40;99.90
17887;DHT22;9069;52.044;7.472;2024-02-04T08:23:51;12.40;99.90
17887;DHT22;9069;52.044;7.472;2024-02-04T08:26:18;12.40;99.90
17887;DHT22;9069;52.044;7.472;2024-02-04T08:28:45;12.40;99.90
17887;DHT22;9069;52.044;7.472;2024-02-04T08:31:11;12.40;99.90
17887;DHT22;9069;52.044;7.472;2024-02-04T08:33:38;12.40;99.90
17887;DHT22;9069;52.044;7.472;2024-02-04T08:36:05;12.40;99.90
17887;DHT22;9069;52.044;7.472;2024-02-04T08:38:33;12.40;99.90
17887;DHT22;9069;52.044;7.472;2024-02-04T08:41:00;12.40;99.90
17887;DHT22;9069;52.044;7.472;2024-02-04T08:43:30;12.50;99.90
17887;DHT22;9069;52.044;7.472;2024-02-04T08:45:57;12.50;99.90
17887;DHT22;9069;52.044;7.472;2024-02-04T08:48:33;12.50;99.90
17887;DHT22;9069;52.044;7.472;2024-02-04T08:51:00;12.50;99.90
17887;DHT22;9069;52.044;7.472;2024-02-04T08:53:29;12.50;99.90
17887;DHT22;9069;52.044;7.472;2024-02-04T08:55:56;12.50;99.90
17887;DHT22;9069;52.044;7.472;2024-02-04T08:58:23;12.50;99.90
17887;DHT22;9069;52.044;7.472;2024-02-04T09:00:53;12.50;99.90
17887;DHT22;9069;52.044;7.472;2024-02-04T09:03:19;12.50;99.90
17887;DHT22;9069;52.044;7.472;2024-02-04T09:05:46;12.60;99.90
17887;DHT22;9069;52.044;7.472;2024-02-04T09:08:13;12.60;99.90
17887;DHT22;9069;52.044;7.472;2024-02-04T09:10:40;12.60;99.90
17887;DHT22;9069;52.044;7.472;2024-02-04T09:13:07;12.60;99.90
17887;DHT22;9069;52.044;7.472;2024-02-04T09:15:34;12.60;99.90
17887;DHT22;9069;52.044;7.472;2024-02-04T09:18:01;12.60;99.90
17887;DHT22;9069;52.044;7.472;2024-02-04T09:20:28;12.60;99.90
17887;DHT22;9069;52.044;7.472;2024-02-04T09:22:55;12.60;99.90
17887;DHT22;9069;52.044;7.472;2024-02-04T09:25:22;12.70;99.90
17887;DHT22;9069;52.044;7.472;2024-02-04T09:27:49;12.60;99.90
17887;DHT22;9069;52.044;7.472;2024-02-04T09:30:16;12.70;99.90
17887;DHT22;9069;52.044;7.472;2024-02-04T09:32:43;12.70;99.90
17887;DHT22;9069;52.044;7.472;2024-02-04T09:35:10;12.70;99.90
17887;DHT22;9069;52.044;7.472;2024-02-04T09:37:37;12.70;99.90
17887;DHT22;9069;52.044;7.472;2024-02-04T09:40:04;12.70;99.90
17887;DHT22;9069;52.044;7.472;2024-02-04T09:42:31;12.70;99.90
17887;DHT22;9069;52.044;7.472;2024-02-04T09:44:59;12.70;99.90
17887;DHT22;9069;52.044;7.472;2024-02-04T09:47:27;12.70;99.90
17887;DHT22;9069;52.044;7.472;2024-02-04T09:49:54;12.70;99.90
17887;DHT22;9069;52.044;7.472;2024-02-04T09:52:29;12.70;99.90
17887;DHT22;9069;52.044;7.472;2024-02-04T09:55:00;12.70;99.90
17887;DHT22;9069;52.044;7.472;2024-02-04T09:57:32;12.80;99.90
17887;DHT22;9069;52.044;7.472;2024-02-04T10:00:02;12.80;99.90
17887;DHT22;9069;52.044;7.472;2024-02-04T10:02:37;12.80;99.90
17887;DHT22;9069;52.044;7.472;2024-02-04T10:05:04;12.80;99.90
17887;DHT22;9069;52.044;7.472;2024-02-04T10:07:32;12.80;99.90
17887;DHT22;9069;52.044;7.472;2024-02-04T10:09:59;12.80;99.90
17887;DHT22;9069;52.044;7.472;2024-02-04T10:12:27;12.90;99.90
17887;DHT22;9069;52.044;7.472;2024-02-04T10:14:54;12.90;99.90
17887;DHT22;9069;52.044;7.472;2024-02-04T10:17:21;12.90;99.90
17887;DHT22;9069;52.044;7.472;2024-02-04T10:19:49;12.90;99.90
17887;DHT22;9069;52.044;7.472;2024-02-04T10:22:16;12.90;99.90
17887;DHT22;9069;52.044;7.472;2024-02-04T10:24:44;13.00;99.90
17887;DHT22;9069;52.044;7.472;2024-02-04T10:27:11;13.10;99.90
17887;DHT22;9069;52.044;7.472;2024-02-04T10:29:48;13.10;99.90
17887;DHT22;9069;52.044;7.472;2024-02-04T10:32:15;13.10;99.90
17887;DHT22;9069;52.044;7.472;2024-02-04T10:34:49;13.10;99.90
17887;DHT22;9069;52.044;7.472;2024-02-04T10:37:16;13.20;99.90
17887;DHT22;9069;52.044;7.472;2024-02-04T10:39:43;13.20;99.90
17887;DHT22;9069;52.044;7.472;2024-02-04T10:42:13;13.20;99.90
17887;DHT22;9069;52.044;7.472;2024-02-04T10:44:42;13.20;99.90
17887;DHT22;9069;52.044;7.472;2024-02-04T10:47:17;13.30;99.90
17887;DHT22;9069;52.044;7.472;2024-02-04T10:49:50;13.30;99.90
17887;DHT22;9069;52.044;7.472;2024-02-04T10:52:18;13.30;99.90
17887;DHT22;9069;52.044;7.472;2024-02-04T10:54:46;13.30;99.90
17887;DHT22;9069;52.044;7.472;2024-02-04T10:57:13;13.30;99.90
17887;DHT22;9069;52.044;7.472;2024-02-04T10:59:48;13.30;99.90
17887;DHT22;9069;52.044;7.472;2024-02-04T11:02:19;13.30;99.90
17887;DHT22;9069;52.044;7.472;2024-02-04T11:04:48;13.30;99.90
17887;DHT22;9069;52.044;7.472;2024-02-04T11:07:17;13.30;99.90
17887;DHT22;9069;52.044;7.472;2024-02-04T11:09:48;13.30;99.90
17887;DHT22;9069;52.044;7.472;2024-02-04T11:12:18;13.30;99.90
17887;DHT22;9069;52.044;7.472;2024-02-04T11:14:48;13.30;99.90
17887;DHT22;9069;52.044;7.472;2024-02-04T11:17:30;13.30;99.90
17887;DHT22;9069;52.044;7.472;2024-02-04T11:23:35;13.30;99.90
17887;DHT22;9069;52.044;7.472;2024-02-04T11:26:05;13.30;99.90
17887;DHT22;9069;52.044;7.472;2024-02-04T11:28:32;13.30;99.90
17887;DHT22;9069;52.044;7.472;2024-02-04T11:30:59;13.30;99.90
17887;DHT22;9069;52.044;7.472;2024-02-04T11:33:32;13.30;99.90
17887;DHT22;9069;52.044;7.472;2024-02-04T11:36:13;13.30;99.90
17887;DHT22;9069;52.044;7.472;2024-02-04T11:38:40;13.30;99.90
17887;DHT22;9069;52.044;7.472;2024-02-04T11:41:07;13.30;99.90
17887;DHT22;9069;52.044;7.472;2024-02-04T11:43:36;13.30;99.90
17887;DHT22;9069;52.044;7.472;2024-02-04T11:46:05;13.30;99.90
17887;DHT22;9069;52.044;7.472;2024-02-04T11:48:33;13.30;99.90
17887;DHT22;9069;52.044;7.472;2024-02-04T11:51:01;13.30;99.90
17887;DHT22;9069;52.044;7.472;2024-02-04T11:53:31;13.30;99.90
17887;DHT22;9069;52.044;7.472;2024-02-04T11:56:03;13.30;99.90
17887;DHT22;9069;52.044;7.472;2024-02-04T11:58:31;13.30;99.90
17887;DHT22;9069;52.044;7.472;2024-02-04T12:00:59;13.30;99.90
17887;DHT22;9069;52.044;7.472;2024-02-04T12:03:32;13.30;99.90
17887;DHT22;9069;52.044;7.472;2024-02-04T12:05:59;13.30;99.90
17887;DHT22;9069;52.044;7.472;2024-02-04T12:08:27;13.30;99.90
17887;DHT22;9069;52.044;7.472;2024-02-04T12:10:54;13.30;99.90
17887;DHT22;9069;52.044;7.472;2024-02-04T12:13:21;13.30;99.90
17887;DHT22;9069;52.044;7.472;2024-02-04T12:15:48;13.40;99.90
17887;DHT22;9069;52.044;7.472;2024-02-04T12:18:16;13.40;99.90
17887;DHT22;9069;52.044;7.472;2024-02-04T12:20:48;13.40;99.90
17887;DHT22;9069;52.044;7.472;2024-02-04T12:23:18;13.40;99.90
17887;DHT22;9069;52.044;7.472;2024-02-04T12:25:45;13.40;99.90
17887;DHT22;9069;52.044;7.472;2024-02-04T12:28:14;13.40;99.90
17887;DHT22;9069;52.044;7.472;2024-02-04T12:30:41;13.40;99.90
17887;DHT22;9069;52.044;7.472;2024-02-04T12:33:18;13.40;99.90
17887;DHT22;9069;52.044;7.472;2024-02-04T12:35:49;13.40;99.90
17887;DHT22;9069;52.044;7.472;2024-02-04T12:38:18;13.40;99.90
17887;DHT22;9069;52.044;7.472;2024-02-04T12:40:45;13.40;99.90
17887;DHT22;9069;52.044;7.472;2024-02-04T12:43:12;13.40;99.90
17887;DHT22;9069;52.044;7.472;2024-02-04T12:45:39;13.40;99.90
17887;DHT22;9069;52.044;7.472;2024-02-04T12:48:06;13.50;99.90
17887;DHT22;9069;52.044;7.472;2024-02-04T12:50:37;13.40;99.90
17887;DHT22;9069;52.044;7.472;2024-02-04T12:53:08;13.40;99.90
17887;DHT22;9069;52.044;7.472;2024-02-04T12:55:38;13.40;99.90
17887;DHT22;9069;52.044;7.472;2024-02-04T12:58:06;13.40;99.90
17887;DHT22;9069;52.044;7.472;2024-02-04T13:00:36;13.40;99.90
17887;DHT22;9069;52.044;7.472;2024-02-04T13:03:04;13.40;99.90
17887;DHT22;9069;52.044;7.472;2024-02-04T13:05:32;13.40;99.90
17887;DHT22;9069;52.044;7.472;2024-02-04T13:08:00;13.40;99.90
17887;DHT22;9069;52.044;7.472;2024-02-04T13:10:33;13.40;99.90
17887;DHT22;9069;52.044;7.472;2024-02-04T13:13:04;13.40;99.90
17887;DHT22;9069;52.044;7.472;2024-02-04T13:15:42;13.40;99.90
17887;DHT22;9069;52.044;7.472;2024-02-04T13:18:12;13.40;99.90
17887;DHT22;9069;52.044;7.472;2024-02-04T13:20:42;13.70;99.90
17887;DHT22;9069;52.044;7.472;2024-02-04T13:23:09;13.40;99.90
17887;DHT22;9069;52.044;7.472;2024-02-04T13:25:38;13.40;99.90
17887;DHT22;9069;52.044;7.472;2024-02-04T13:28:05;13.40;99.90
17887;DHT22;9069;52.044;7.472;2024-02-04T13:30:32;13.40;99.90
17887;DHT22;9069;52.044;7.472;2024-02-04T13:32:59;13.40;99.90
17887;DHT22;9069;52.044;7.472;2024-02-04T13:35:28;13.40;99.90
17887;DHT22;9069;52.044;7.472;2024-02-04T13:37:55;13.40;99.90
17887;DHT22;9069;52.044;7.472;2024-02-04T13:40:22;13.50;99.90
17887;DHT22;9069;52.044;7.472;2024-02-04T13:42:51;13.50;99.90
17887;DHT22;9069;52.044;7.472;2024-02-04T13:45:18;13.50;99.90
17887;DHT22;9069;52.044;7.472;2024-02-04T13:47:45;13.50;99.90
17887;DHT22;9069;52.044;7.472;2024-02-04T13:50:12;13.50;99.90
17887;DHT22;9069;52.044;7.472;2024-02-04T13:52:40;13.50;99.90
17887;DHT22;9069;52.044;7.472;2024-02-04T13:55:07;13.50;99.90
17887;DHT22;9069;52.044;7.472;2024-02-04T13:57:34;13.60;99.90
17887;DHT22;9069;52.044;7.472;2024-02-04T14:00:02;13.60;99.90
17887;DHT22;9069;52.044;7.472;2024-02-04T14:02:32;13.60;99.90
17887;DHT22;9069;52.044;7.472;2024-02-04T14:04:58;13.60;99.90
17887;DHT22;9069;52.044;7.472;2024-02-04T14:07:27;13.60;99.90
17887;DHT22;9069;52.044;7.472;2024-02-04T14:09:54;13.50;99.90
17887;DHT22;9069;52.044;7.472;2024-02-04T14:12:21;13.60;99.90
17887;DHT22;9069;52.044;7.472;2024-02-04T14:14:48;13.50;99.90
17887;DHT22;9069;52.044;7.472;2024-02-04T14:17:14;13.50;99.90
17887;DHT22;9069;52.044;7.472;2024-02-04T14:19:41;13.50;99.90
17887;DHT22;9069;52.044;7.472;2024-02-04T14:22:08;13.50;99.90
17887;DHT22;9069;52.044;7.472;2024-02-04T14:24:37;13.50;99.90
17887;DHT22;9069;52.044;7.472;2024-02-04T14:27:04;13.60;99.90
17887;DHT22;9069;52.044;7.472;2024-02-04T14:29:31;13.60;99.90
17887;DHT22;9069;52.044;7.472;2024-02-04T14:31:58;13.50;99.90
17887;DHT22;9069;52.044;7.472;2024-02-04T14:34:24;13.50;99.90
17887;DHT22;9069;52.044;7.472;2024-02-04T14:36:52;13.50;99.90
17887;DHT22;9069;52.044;7.472;2024-02-04T14:39:19;13.50;99.90
17887;DHT22;9069;52.044;7.472;2024-02-04T14:41:46;13.50;99.90
17887;DHT22;9069;52.044;7.472;2024-02-04T14:44:12;13.50;99.90
17887;DHT22;9069;52.044;7.472;2024-02-04T14:46:39;13.50;99.90
17887;DHT22;9069;52.044;7.472;2024-02-04T14:49:06;13.50;99.90
17887;DHT22;9069;52.044;7.472;2024-02-04T14:51:37;13.50;99.90
17887;DHT22;9069;52.044;7.472;2024-02-04T14:54:06;13.50;99.90
17887;DHT22;9069;52.044;7.472;2024-02-04T14:56:39;13.50;99.90
17887;DHT22;9069;52.044;7.472;2024-02-04T14:59:10;13.50;99.90
17887;DHT22;9069;52.044;7.472;2024-02-04T15:01:48;13.50;99.90
17887;DHT22;9069;52.044;7.472;2024-02-04T15:04:16;13.50;99.90
17887;DHT22;9069;52.044;7.472;2024-02-04T15:06:43;13.50;99.90
17887;DHT22;9069;52.044;7.472;2024-02-04T15:09:11;13.50;99.90
17887;DHT22;9069;52.044;7.472;2024-02-04T15:11:38;13.50;99.90
17887;DHT22;9069;52.044;7.472;2024-02-04T15:14:06;13.50;99.90
17887;DHT22;9069;52.044;7.472;2024-02-04T15:16:35;13.40;99.90
17887;DHT22;9069;52.044;7.472;2024-02-04T15:19:06;13.40;99.90
17887;DHT22;9069;52.044;7.472;2024-02-04T15:21:33;13.40;99.90
17887;DHT22;9069;52.044;7.472;2024-02-04T15:24:00;13.40;99.90
17887;DHT22;9069;52.044;7.472;2024-02-04T15:26:32;13.40;99.90
17887;DHT22;9069;52.044;7.472;2024-02-04T15:29:03;13.40;99.90
17887;DHT22;9069;52.044;7.472;2024-02-04T15:31:31;13.40;99.90
17887;DHT22;9069;52.044;7.472;2024-02-04T15:34:02;13.40;99.90
17887;DHT22;9069;52.044;7.472;2024-02-04T15:36:31;13.40;99.90
17887;DHT22;9069;52.044;7.472;2024-02-04T15:38:59;13.50;99.90
17887;DHT22;9069;52.044;7.472;2024-02-04T15:41:27;13.40;99.90
17887;DHT22;9069;52.044;7.472;2024-02-04T15:43:54;13.40;99.90
17887;DHT22;9069;52.044;7.472;2024-02-04T15:46:23;13.40;99.90
17887;DHT22;9069;52.044;7.472;2024-02-04T15:48:52;13.30;99.90
17887;DHT22;9069;52.044;7.472;2024-02-04T15:51:20;13.30;99.90
17887;DHT22;9069;52.044;7.472;2024-02-04T15:53:47;13.30;99.90
17887;DHT22;9069;52.044;7.472;2024-02-04T15:56:18;13.30;99.90
17887;DHT22;9069;52.044;7.472;2024-02-04T15:58:47;13.30;99.90